sensor_id;sensor_type;location;lat;lon;timestamp;P1;durP1;ratioP1;P2;durP2;ratioP2
16531;SDS011;66872;63.142;14.482;2023-04-24T00:01:27;0.90;;;0.90;;
16531;SDS011;66872;63.142;14.482;2023-04-24T00:03:54;0.90;;;0.90;;
16531;SDS011;66872;63.142;14.482;2023-04-24T00:06:24;0.80;;;0.80;;
16531;SDS011;66872;63.142;14.482;2023-04-24T00:08:58;0.90;;;0.90;;
16531;SDS011;66872;63.142;14.482;2023-04-24T00:11:27;0.87;;;0.87;;
16531;SDS011;66872;63.142;14.482;2023-04-24T00:13:53;0.77;;;0.77;;
16531;SDS011;66872;63.142;14.482;2023-04-24T00:16:19;0.90;;;0.90;;
16531;SDS011;66872;63.142;14.482;2023-04-24T00:18:46;1.00;;;1.00;;
16531;SDS011;66872;63.142;14.482;2023-04-24T00:21:12;0.90;;;0.90;;
16531;SDS011;66872;63.142;14.482;2023-04-24T00:23:39;0.83;;;0.83;;
16531;SDS011;66872;63.142;14.482;2023-04-24T00:26:05;1.37;;;1.00;;
16531;SDS011;66872;63.142;14.482;2023-04-24T00:28:31;0.90;;;0.90;;
16531;SDS011;66872;63.142;14.482;2023-04-24T00:30:56;0.90;;;0.90;;
16531;SDS011;66872;63.142;14.482;2023-04-24T00:33:22;0.90;;;0.90;;
16531;SDS011;66872;63.142;14.482;2023-04-24T00:35:48;1.10;;;1.00;;
16531;SDS011;66872;63.142;14.482;2023-04-24T00:38:13;0.93;;;0.93;;
16531;SDS011;66872;63.142;14.482;2023-04-24T00:40:39;1.03;;;1.00;;
16531;SDS011;66872;63.142;14.482;2023-04-24T00:43:05;0.90;;;0.90;;
16531;SDS011;66872;63.142;14.482;2023-04-24T00:45:31;0.80;;;0.80;;
16531;SDS011;66872;63.142;14.482;2023-04-24T00:47:57;1.00;;;1.00;;
16531;SDS011;66872;63.142;14.482;2023-04-24T00:50:23;1.10;;;1.10;;
16531;SDS011;66872;63.142;14.482;2023-04-24T00:52:49;0.97;;;0.97;;
16531;SDS011;66872;63.142;14.482;2023-04-24T00:55:16;1.00;;;0.90;;
16531;SDS011;66872;63.142;14.482;2023-04-24T00:57:42;1.00;;;1.00;;
16531;SDS011;66872;63.142;14.482;2023-04-24T01:00:09;0.80;;;0.80;;
16531;SDS011;66872;63.142;14.482;2023-04-24T01:02:36;1.30;;;1.20;;
16531;SDS011;66872;63.142;14.482;2023-04-24T01:05:08;1.07;;;1.00;;
16531;SDS011;66872;63.142;14.482;2023-04-24T01:07:35;1.07;;;0.90;;
16531;SDS011;66872;63.142;14.482;2023-04-24T01:10:01;0.90;;;0.90;;
16531;SDS011;66872;63.142;14.482;2023-04-24T01:12:28;1.13;;;1.03;;
16531;SDS011;66872;63.142;14.482;2023-04-24T01:14:54;0.90;;;0.90;;
16531;SDS011;66872;63.142;14.482;2023-04-24T01:17:21;0.90;;;0.90;;
16531;SDS011;66872;63.142;14.482;2023-04-24T01:19:47;0.90;;;0.90;;
16531;SDS011;66872;63.142;14.482;2023-04-24T01:22:15;0.90;;;0.90;;
16531;SDS011;66872;63.142;14.482;2023-04-24T01:24:42;1.00;;;1.00;;
16531;SDS011;66872;63.142;14.482;2023-04-24T01:27:09;0.70;;;0.70;;
16531;SDS011;66872;63.142;14.482;2023-04-24T01:29:35;1.10;;;1.10;;
16531;SDS011;66872;63.142;14.482;2023-04-24T01:32:02;1.00;;;1.00;;
16531;SDS011;66872;63.142;14.482;2023-04-24T01:34:29;0.90;;;0.90;;
16531;SDS011;66872;63.142;14.482;2023-04-24T01:36:55;1.00;;;1.00;;
16531;SDS011;66872;63.142;14.482;2023-04-24T01:39:21;1.20;;;1.10;;
16531;SDS011;66872;63.142;14.482;2023-04-24T01:41:50;0.93;;;0.93;;
16531;SDS011;66872;63.142;14.482;2023-04-24T01:44:17;0.97;;;0.90;;
16531;SDS011;66872;63.142;14.482;2023-04-24T01:46:43;1.00;;;1.00;;
16531;SDS011;66872;63.142;14.482;2023-04-24T01:49:08;1.10;;;1.00;;
16531;SDS011;66872;63.142;14.482;2023-04-24T01:51:34;0.90;;;0.90;;
16531;SDS011;66872;63.142;14.482;2023-04-24T01:54:00;1.10;;;1.00;;
16531;SDS011;66872;63.142;14.482;2023-04-24T01:56:29;1.00;;;1.00;;
16531;SDS011;66872;63.142;14.482;2023-04-24T01:58:55;0.97;;;0.97;;
16531;SDS011;66872;63.142;14.482;2023-04-24T02:01:23;1.03;;;1.03;;
16531;SDS011;66872;63.142;14.482;2023-04-24T02:03:49;0.93;;;0.93;;
16531;SDS011;66872;63.142;14.482;2023-04-24T02:06:15;1.00;;;1.00;;
16531;SDS011;66872;63.142;14.482;2023-04-24T02:08:41;1.10;;;1.00;;
16531;SDS011;66872;63.142;14.482;2023-04-24T02:11:08;1.10;;;1.10;;
16531;SDS011;66872;63.142;14.482;2023-04-24T02:13:34;0.93;;;0.93;;
16531;SDS011;66872;63.142;14.482;2023-04-24T02:16:00;0.97;;;0.97;;
16531;SDS011;66872;63.142;14.482;2023-04-24T02:18:26;0.90;;;0.90;;
16531;SDS011;66872;63.142;14.482;2023-04-24T02:20:52;1.10;;;1.10;;
16531;SDS011;66872;63.142;14.482;2023-04-24T02:23:18;1.17;;;1.10;;
16531;SDS011;66872;63.142;14.482;2023-04-24T02:25:43;0.90;;;0.90;;
16531;SDS011;66872;63.142;14.482;2023-04-24T02:28:09;0.93;;;0.93;;
16531;SDS011;66872;63.142;14.482;2023-04-24T02:30:34;0.97;;;0.97;;
16531;SDS011;66872;63.142;14.482;2023-04-24T02:33:00;1.20;;;1.10;;
16531;SDS011;66872;63.142;14.482;2023-04-24T02:35:26;1.00;;;1.00;;
16531;SDS011;66872;63.142;14.482;2023-04-24T02:37:51;0.90;;;0.90;;
16531;SDS011;66872;63.142;14.482;2023-04-24T02:40:17;1.10;;;1.00;;
16531;SDS011;66872;63.142;14.482;2023-04-24T02:42:43;0.80;;;0.80;;
16531;SDS011;66872;63.142;14.482;2023-04-24T02:45:09;1.20;;;1.10;;
16531;SDS011;66872;63.142;14.482;2023-04-24T02:47:35;1.20;;;1.10;;
16531;SDS011;66872;63.142;14.482;2023-04-24T02:50:01;1.03;;;1.03;;
16531;SDS011;66872;63.142;14.482;2023-04-24T02:52:28;1.17;;;1.10;;
16531;SDS011;66872;63.142;14.482;2023-04-24T02:54:53;1.10;;;1.00;;
16531;SDS011;66872;63.142;14.482;2023-04-24T02:57:19;1.00;;;1.00;;
16531;SDS011;66872;63.142;14.482;2023-04-24T02:59:45;1.10;;;1.10;;
16531;SDS011;66872;63.142;14.482;2023-04-24T03:02:10;0.87;;;0.87;;
16531;SDS011;66872;63.142;14.482;2023-04-24T03:04:36;1.00;;;1.00;;
16531;SDS011;66872;63.142;14.482;2023-04-24T03:07:01;1.00;;;1.00;;
16531;SDS011;66872;63.142;14.482;2023-04-24T03:09:27;1.00;;;1.00;;
16531;SDS011;66872;63.142;14.482;2023-04-24T03:11:53;1.00;;;1.00;;
16531;SDS011;66872;63.142;14.482;2023-04-24T03:14:18;1.10;;;1.10;;
16531;SDS011;66872;63.142;14.482;2023-04-24T03:16:44;0.90;;;0.90;;
16531;SDS011;66872;63.142;14.482;2023-04-24T03:19:10;1.30;;;1.20;;
16531;SDS011;66872;63.142;14.482;2023-04-24T03:21:36;0.87;;;0.87;;
16531;SDS011;66872;63.142;14.482;2023-04-24T03:24:05;1.00;;;1.00;;
16531;SDS011;66872;63.142;14.482;2023-04-24T03:26:34;1.03;;;0.97;;
16531;SDS011;66872;63.142;14.482;2023-04-24T03:29:00;1.03;;;1.03;;
16531;SDS011;66872;63.142;14.482;2023-04-24T03:31:26;0.93;;;0.93;;
16531;SDS011;66872;63.142;14.482;2023-04-24T03:33:51;0.90;;;0.90;;
16531;SDS011;66872;63.142;14.482;2023-04-24T03:36:17;0.90;;;0.90;;
16531;SDS011;66872;63.142;14.482;2023-04-24T03:38:44;1.00;;;1.00;;
16531;SDS011;66872;63.142;14.482;2023-04-24T03:41:10;0.87;;;0.87;;
16531;SDS011;66872;63.142;14.482;2023-04-24T03:43:37;0.80;;;0.80;;
16531;SDS011;66872;63.142;14.482;2023-04-24T03:46:03;1.07;;;1.00;;
16531;SDS011;66872;63.142;14.482;2023-04-24T03:48:29;1.00;;;1.00;;
16531;SDS011;66872;63.142;14.482;2023-04-24T03:50:54;1.10;;;1.10;;
16531;SDS011;66872;63.142;14.482;2023-04-24T03:53:20;0.90;;;0.90;;
16531;SDS011;66872;63.142;14.482;2023-04-24T03:55:46;0.90;;;0.90;;
16531;SDS011;66872;63.142;14.482;2023-04-24T03:58:12;0.80;;;0.80;;
16531;SDS011;66872;63.142;14.482;2023-04-24T04:00:41;0.90;;;0.90;;
16531;SDS011;66872;63.142;14.482;2023-04-24T04:03:07;1.20;;;1.10;;
16531;SDS011;66872;63.142;14.482;2023-04-24T04:05:32;0.97;;;0.97;;
16531;SDS011;66872;63.142;14.482;2023-04-24T04:07:58;1.00;;;1.00;;
16531;SDS011;66872;63.142;14.482;2023-04-24T04:10:23;0.90;;;0.90;;
16531;SDS011;66872;63.142;14.482;2023-04-24T04:12:49;0.80;;;0.80;;
16531;SDS011;66872;63.142;14.482;2023-04-24T04:15:15;1.07;;;1.00;;
16531;SDS011;66872;63.142;14.482;2023-04-24T04:17:40;1.10;;;1.10;;
16531;SDS011;66872;63.142;14.482;2023-04-24T04:20:06;1.00;;;1.00;;
16531;SDS011;66872;63.142;14.482;2023-04-24T04:22:35;1.13;;;1.10;;
16531;SDS011;66872;63.142;14.482;2023-04-24T04:25:02;1.10;;;1.00;;
16531;SDS011;66872;63.142;14.482;2023-04-24T04:27:28;1.20;;;1.10;;
16531;SDS011;66872;63.142;14.482;2023-04-24T04:29:57;1.00;;;1.00;;
16531;SDS011;66872;63.142;14.482;2023-04-24T04:32:30;1.00;;;1.00;;
16531;SDS011;66872;63.142;14.482;2023-04-24T04:34:58;0.70;;;0.70;;
16531;SDS011;66872;63.142;14.482;2023-04-24T04:37:27;0.90;;;0.90;;
16531;SDS011;66872;63.142;14.482;2023-04-24T04:39:58;1.00;;;1.00;;
16531;SDS011;66872;63.142;14.482;2023-04-24T04:42:24;1.00;;;1.00;;
16531;SDS011;66872;63.142;14.482;2023-04-24T04:44:50;0.90;;;0.90;;
16531;SDS011;66872;63.142;14.482;2023-04-24T04:47:16;1.03;;;1.03;;
16531;SDS011;66872;63.142;14.482;2023-04-24T04:49:42;1.77;;;0.90;;
16531;SDS011;66872;63.142;14.482;2023-04-24T04:52:08;1.20;;;1.10;;
16531;SDS011;66872;63.142;14.482;2023-04-24T04:54:34;0.80;;;0.80;;
16531;SDS011;66872;63.142;14.482;2023-04-24T04:57:00;1.20;;;1.10;;
16531;SDS011;66872;63.142;14.482;2023-04-24T04:59:26;0.80;;;0.80;;
16531;SDS011;66872;63.142;14.482;2023-04-24T05:01:52;1.13;;;1.10;;
16531;SDS011;66872;63.142;14.482;2023-04-24T05:04:18;1.10;;;1.00;;
16531;SDS011;66872;63.142;14.482;2023-04-24T05:06:43;0.90;;;0.90;;
16531;SDS011;66872;63.142;14.482;2023-04-24T05:09:09;1.10;;;1.07;;
16531;SDS011;66872;63.142;14.482;2023-04-24T05:11:35;1.13;;;1.10;;
16531;SDS011;66872;63.142;14.482;2023-04-24T05:14:01;1.17;;;1.10;;
16531;SDS011;66872;63.142;14.482;2023-04-24T05:16:26;1.00;;;1.00;;
16531;SDS011;66872;63.142;14.482;2023-04-24T05:18:52;0.93;;;0.93;;
16531;SDS011;66872;63.142;14.482;2023-04-24T05:21:17;1.20;;;1.10;;
16531;SDS011;66872;63.142;14.482;2023-04-24T05:23:43;1.33;;;1.10;;
16531;SDS011;66872;63.142;14.482;2023-04-24T05:26:09;0.90;;;0.90;;
16531;SDS011;66872;63.142;14.482;2023-04-24T05:28:35;1.27;;;1.20;;
16531;SDS011;66872;63.142;14.482;2023-04-24T05:31:01;1.23;;;1.13;;
16531;SDS011;66872;63.142;14.482;2023-04-24T05:33:27;0.93;;;0.93;;
16531;SDS011;66872;63.142;14.482;2023-04-24T05:35:53;1.20;;;1.10;;
16531;SDS011;66872;63.142;14.482;2023-04-24T05:38:19;1.20;;;1.10;;
16531;SDS011;66872;63.142;14.482;2023-04-24T05:40:45;1.30;;;1.20;;
16531;SDS011;66872;63.142;14.482;2023-04-24T05:43:11;1.27;;;1.20;;
16531;SDS011;66872;63.142;14.482;2023-04-24T05:45:38;1.10;;;1.00;;
16531;SDS011;66872;63.142;14.482;2023-04-24T05:48:04;1.00;;;1.00;;
16531;SDS011;66872;63.142;14.482;2023-04-24T05:50:30;0.90;;;0.90;;
16531;SDS011;66872;63.142;14.482;2023-04-24T05:52:56;0.90;;;0.90;;
16531;SDS011;66872;63.142;14.482;2023-04-24T05:55:26;1.23;;;1.13;;
16531;SDS011;66872;63.142;14.482;2023-04-24T05:57:52;0.90;;;0.90;;
16531;SDS011;66872;63.142;14.482;2023-04-24T06:00:18;1.00;;;1.00;;
16531;SDS011;66872;63.142;14.482;2023-04-24T06:02:45;1.10;;;1.00;;
16531;SDS011;66872;63.142;14.482;2023-04-24T06:05:11;1.20;;;1.10;;
16531;SDS011;66872;63.142;14.482;2023-04-24T06:07:36;1.00;;;1.00;;
16531;SDS011;66872;63.142;14.482;2023-04-24T06:10:02;1.20;;;1.10;;
16531;SDS011;66872;63.142;14.482;2023-04-24T06:12:28;1.13;;;1.10;;
16531;SDS011;66872;63.142;14.482;2023-04-24T06:14:54;1.30;;;1.20;;
16531;SDS011;66872;63.142;14.482;2023-04-24T06:17:20;1.03;;;1.03;;
16531;SDS011;66872;63.142;14.482;2023-04-24T06:19:46;1.00;;;1.00;;
16531;SDS011;66872;63.142;14.482;2023-04-24T06:22:12;1.00;;;1.00;;
16531;SDS011;66872;63.142;14.482;2023-04-24T06:24:37;1.17;;;1.10;;
16531;SDS011;66872;63.142;14.482;2023-04-24T06:27:04;0.97;;;0.97;;
16531;SDS011;66872;63.142;14.482;2023-04-24T06:29:30;1.30;;;1.20;;
16531;SDS011;66872;63.142;14.482;2023-04-24T06:31:56;1.20;;;1.10;;
16531;SDS011;66872;63.142;14.482;2023-04-24T06:34:21;1.20;;;1.10;;
16531;SDS011;66872;63.142;14.482;2023-04-24T06:36:47;1.30;;;1.20;;
16531;SDS011;66872;63.142;14.482;2023-04-24T06:39:13;1.20;;;1.10;;
16531;SDS011;66872;63.142;14.482;2023-04-24T06:41:38;1.20;;;1.10;;
16531;SDS011;66872;63.142;14.482;2023-04-24T06:44:05;1.00;;;1.00;;
16531;SDS011;66872;63.142;14.482;2023-04-24T06:46:30;1.10;;;1.00;;
16531;SDS011;66872;63.142;14.482;2023-04-24T06:48:56;1.13;;;1.10;;
16531;SDS011;66872;63.142;14.482;2023-04-24T06:51:25;1.00;;;1.00;;
16531;SDS011;66872;63.142;14.482;2023-04-24T06:53:53;1.10;;;1.00;;
16531;SDS011;66872;63.142;14.482;2023-04-24T06:56:19;1.10;;;1.10;;
16531;SDS011;66872;63.142;14.482;2023-04-24T06:58:45;1.37;;;1.27;;
16531;SDS011;66872;63.142;14.482;2023-04-24T07:01:11;1.00;;;1.00;;
16531;SDS011;66872;63.142;14.482;2023-04-24T07:03:37;1.30;;;1.20;;
16531;SDS011;66872;63.142;14.482;2023-04-24T07:06:03;1.30;;;1.20;;
16531;SDS011;66872;63.142;14.482;2023-04-24T07:08:29;1.13;;;1.10;;
16531;SDS011;66872;63.142;14.482;2023-04-24T07:10:58;1.20;;;1.10;;
16531;SDS011;66872;63.142;14.482;2023-04-24T07:13:24;1.40;;;1.30;;
16531;SDS011;66872;63.142;14.482;2023-04-24T07:15:51;1.40;;;1.10;;
16531;SDS011;66872;63.142;14.482;2023-04-24T07:18:19;1.30;;;1.20;;
16531;SDS011;66872;63.142;14.482;2023-04-24T07:20:45;1.00;;;1.00;;
16531;SDS011;66872;63.142;14.482;2023-04-24T07:23:11;1.07;;;1.07;;
16531;SDS011;66872;63.142;14.482;2023-04-24T07:25:37;1.10;;;1.10;;
16531;SDS011;66872;63.142;14.482;2023-04-24T07:28:04;1.20;;;1.10;;
16531;SDS011;66872;63.142;14.482;2023-04-24T07:30:30;1.20;;;1.10;;
16531;SDS011;66872;63.142;14.482;2023-04-24T07:32:57;1.30;;;1.20;;
16531;SDS011;66872;63.142;14.482;2023-04-24T07:35:23;1.40;;;1.30;;
16531;SDS011;66872;63.142;14.482;2023-04-24T07:37:51;1.30;;;1.20;;
16531;SDS011;66872;63.142;14.482;2023-04-24T07:40:18;1.40;;;1.30;;
16531;SDS011;66872;63.142;14.482;2023-04-24T07:42:44;1.30;;;1.20;;
16531;SDS011;66872;63.142;14.482;2023-04-24T07:45:09;1.20;;;1.10;;
16531;SDS011;66872;63.142;14.482;2023-04-24T07:47:35;1.30;;;1.20;;
16531;SDS011;66872;63.142;14.482;2023-04-24T07:50:02;1.40;;;1.30;;
16531;SDS011;66872;63.142;14.482;2023-04-24T07:52:28;1.30;;;1.20;;
16531;SDS011;66872;63.142;14.482;2023-04-24T07:54:54;1.20;;;1.10;;
16531;SDS011;66872;63.142;14.482;2023-04-24T07:57:23;1.30;;;1.20;;
16531;SDS011;66872;63.142;14.482;2023-04-24T07:59:50;1.30;;;1.20;;
16531;SDS011;66872;63.142;14.482;2023-04-24T08:02:15;4.20;;;1.53;;
16531;SDS011;66872;63.142;14.482;2023-04-24T08:04:41;2.70;;;1.50;;
16531;SDS011;66872;63.142;14.482;2023-04-24T08:07:07;4.87;;;1.57;;
16531;SDS011;66872;63.142;14.482;2023-04-24T08:09:33;4.77;;;1.60;;
16531;SDS011;66872;63.142;14.482;2023-04-24T08:11:59;4.47;;;1.57;;
16531;SDS011;66872;63.142;14.482;2023-04-24T08:14:24;5.40;;;1.50;;
16531;SDS011;66872;63.142;14.482;2023-04-24T08:16:50;7.07;;;1.80;;
16531;SDS011;66872;63.142;14.482;2023-04-24T08:19:17;9.00;;;1.90;;
16531;SDS011;66872;63.142;14.482;2023-04-24T08:21:43;6.43;;;1.93;;
16531;SDS011;66872;63.142;14.482;2023-04-24T08:24:08;5.57;;;1.70;;
16531;SDS011;66872;63.142;14.482;2023-04-24T08:26:34;8.83;;;2.00;;
16531;SDS011;66872;63.142;14.482;2023-04-24T08:29:00;11.03;;;1.87;;
16531;SDS011;66872;63.142;14.482;2023-04-24T08:31:25;11.43;;;2.00;;
16531;SDS011;66872;63.142;14.482;2023-04-24T08:33:51;6.20;;;2.17;;
16531;SDS011;66872;63.142;14.482;2023-04-24T08:36:17;4.60;;;1.57;;
16531;SDS011;66872;63.142;14.482;2023-04-24T08:38:43;2.70;;;1.40;;
16531;SDS011;66872;63.142;14.482;2023-04-24T08:41:11;5.73;;;1.80;;
16531;SDS011;66872;63.142;14.482;2023-04-24T08:43:39;7.00;;;1.60;;
16531;SDS011;66872;63.142;14.482;2023-04-24T08:46:05;4.50;;;1.70;;
16531;SDS011;66872;63.142;14.482;2023-04-24T08:48:31;4.03;;;1.40;;
16531;SDS011;66872;63.142;14.482;2023-04-24T08:50:58;6.57;;;1.67;;
16531;SDS011;66872;63.142;14.482;2023-04-24T08:53:24;2.70;;;1.53;;
16531;SDS011;66872;63.142;14.482;2023-04-24T08:55:50;2.17;;;1.47;;
16531;SDS011;66872;63.142;14.482;2023-04-24T08:58:18;3.93;;;1.70;;
16531;SDS011;66872;63.142;14.482;2023-04-24T09:00:44;3.37;;;1.50;;
16531;SDS011;66872;63.142;14.482;2023-04-24T09:03:13;4.00;;;1.70;;
16531;SDS011;66872;63.142;14.482;2023-04-24T09:05:41;2.37;;;1.80;;
16531;SDS011;66872;63.142;14.482;2023-04-24T09:08:11;4.37;;;1.60;;
16531;SDS011;66872;63.142;14.482;2023-04-24T09:10:39;2.60;;;1.50;;
16531;SDS011;66872;63.142;14.482;2023-04-24T09:13:05;3.20;;;1.30;;
16531;SDS011;66872;63.142;14.482;2023-04-24T09:15:34;5.67;;;1.37;;
16531;SDS011;66872;63.142;14.482;2023-04-24T09:18:00;2.87;;;1.50;;
16531;SDS011;66872;63.142;14.482;2023-04-24T09:20:26;3.13;;;1.63;;
16531;SDS011;66872;63.142;14.482;2023-04-24T09:22:56;2.07;;;1.37;;
16531;SDS011;66872;63.142;14.482;2023-04-24T09:25:22;4.50;;;1.60;;
16531;SDS011;66872;63.142;14.482;2023-04-24T09:27:50;2.40;;;1.40;;
16531;SDS011;66872;63.142;14.482;2023-04-24T09:30:22;4.27;;;1.50;;
16531;SDS011;66872;63.142;14.482;2023-04-24T09:32:48;3.10;;;1.67;;
16531;SDS011;66872;63.142;14.482;2023-04-24T09:35:14;3.43;;;1.40;;
16531;SDS011;66872;63.142;14.482;2023-04-24T09:37:45;2.23;;;1.40;;
16531;SDS011;66872;63.142;14.482;2023-04-24T09:42:45;2.73;;;1.37;;
16531;SDS011;66872;63.142;14.482;2023-04-24T09:45:16;2.77;;;1.30;;
16531;SDS011;66872;63.142;14.482;2023-04-24T09:47:42;2.33;;;1.50;;
16531;SDS011;66872;63.142;14.482;2023-04-24T09:52:42;3.10;;;1.50;;
16531;SDS011;66872;63.142;14.482;2023-04-24T09:55:27;4.03;;;1.60;;
16531;SDS011;66872;63.142;14.482;2023-04-24T09:58:00;1.57;;;1.23;;
16531;SDS011;66872;63.142;14.482;2023-04-24T10:00:30;3.40;;;1.40;;
16531;SDS011;66872;63.142;14.482;2023-04-24T10:03:00;1.77;;;1.40;;
16531;SDS011;66872;63.142;14.482;2023-04-24T10:10:28;1.73;;;1.40;;
16531;SDS011;66872;63.142;14.482;2023-04-24T10:12:56;2.13;;;1.27;;
16531;SDS011;66872;63.142;14.482;2023-04-24T10:15:22;1.97;;;1.37;;
16531;SDS011;66872;63.142;14.482;2023-04-24T10:17:48;1.83;;;1.40;;
16531;SDS011;66872;63.142;14.482;2023-04-24T10:20:24;1.67;;;1.20;;
16531;SDS011;66872;63.142;14.482;2023-04-24T10:22:52;1.40;;;1.30;;
16531;SDS011;66872;63.142;14.482;2023-04-24T10:25:25;1.63;;;1.27;;
16531;SDS011;66872;63.142;14.482;2023-04-24T10:27:53;2.07;;;1.30;;
16531;SDS011;66872;63.142;14.482;2023-04-24T10:30:22;1.60;;;1.30;;
16531;SDS011;66872;63.142;14.482;2023-04-24T10:32:48;1.37;;;1.27;;
16531;SDS011;66872;63.142;14.482;2023-04-24T10:35:15;1.87;;;1.50;;
16531;SDS011;66872;63.142;14.482;2023-04-24T10:40:24;1.87;;;1.43;;
16531;SDS011;66872;63.142;14.482;2023-04-24T10:42:52;1.43;;;1.10;;
16531;SDS011;66872;63.142;14.482;2023-04-24T10:45:19;1.77;;;1.20;;
16531;SDS011;66872;63.142;14.482;2023-04-24T10:47:52;3.97;;;1.43;;
16531;SDS011;66872;63.142;14.482;2023-04-24T10:50:48;1.80;;;1.30;;
16531;SDS011;66872;63.142;14.482;2023-04-24T10:53:21;1.67;;;1.27;;
16531;SDS011;66872;63.142;14.482;2023-04-24T10:55:51;1.63;;;1.40;;
16531;SDS011;66872;63.142;14.482;2023-04-24T11:01:03;1.50;;;1.40;;
16531;SDS011;66872;63.142;14.482;2023-04-24T11:03:29;1.90;;;1.23;;
16531;SDS011;66872;63.142;14.482;2023-04-24T11:06:06;1.53;;;1.37;;
16531;SDS011;66872;63.142;14.482;2023-04-24T11:08:40;3.07;;;1.40;;
16531;SDS011;66872;63.142;14.482;2023-04-24T11:11:12;1.93;;;1.30;;
16531;SDS011;66872;63.142;14.482;2023-04-24T11:19:07;4.33;;;1.33;;
16531;SDS011;66872;63.142;14.482;2023-04-24T11:21:55;2.13;;;1.43;;
16531;SDS011;66872;63.142;14.482;2023-04-24T11:29:38;1.57;;;1.40;;
16531;SDS011;66872;63.142;14.482;2023-04-24T11:32:26;1.30;;;1.20;;
16531;SDS011;66872;63.142;14.482;2023-04-24T11:35:17;1.50;;;1.40;;
16531;SDS011;66872;63.142;14.482;2023-04-24T11:37:50;2.20;;;1.30;;
16531;SDS011;66872;63.142;14.482;2023-04-24T11:40:17;1.33;;;1.20;;
16531;SDS011;66872;63.142;14.482;2023-04-24T11:42:49;1.20;;;1.10;;
16531;SDS011;66872;63.142;14.482;2023-04-24T11:45:17;1.27;;;1.17;;
16531;SDS011;66872;63.142;14.482;2023-04-24T11:47:50;1.33;;;1.20;;
16531;SDS011;66872;63.142;14.482;2023-04-24T11:50:16;1.53;;;1.33;;
16531;SDS011;66872;63.142;14.482;2023-04-24T11:52:44;1.83;;;1.33;;
16531;SDS011;66872;63.142;14.482;2023-04-24T11:57:43;1.90;;;1.30;;
16531;SDS011;66872;63.142;14.482;2023-04-24T12:00:21;1.73;;;1.33;;
16531;SDS011;66872;63.142;14.482;2023-04-24T12:02:49;2.13;;;1.10;;
16531;SDS011;66872;63.142;14.482;2023-04-24T12:05:26;2.43;;;1.37;;
16531;SDS011;66872;63.142;14.482;2023-04-24T12:07:52;1.57;;;1.30;;
16531;SDS011;66872;63.142;14.482;2023-04-24T12:10:21;1.80;;;1.10;;
16531;SDS011;66872;63.142;14.482;2023-04-24T12:12:49;0.90;;;0.90;;
16531;SDS011;66872;63.142;14.482;2023-04-24T12:15:16;1.80;;;1.00;;
16531;SDS011;66872;63.142;14.482;2023-04-24T12:17:43;1.40;;;1.30;;
16531;SDS011;66872;63.142;14.482;2023-04-24T12:20:09;1.40;;;1.30;;
16531;SDS011;66872;63.142;14.482;2023-04-24T12:22:58;2.40;;;1.20;;
16531;SDS011;66872;63.142;14.482;2023-04-24T12:25:24;1.20;;;1.10;;
16531;SDS011;66872;63.142;14.482;2023-04-24T12:27:55;1.30;;;1.20;;
16531;SDS011;66872;63.142;14.482;2023-04-24T12:30:40;1.40;;;1.27;;
16531;SDS011;66872;63.142;14.482;2023-04-24T12:33:16;1.20;;;1.10;;
16531;SDS011;66872;63.142;14.482;2023-04-24T12:35:45;1.30;;;1.20;;
16531;SDS011;66872;63.142;14.482;2023-04-24T12:38:12;2.13;;;1.30;;
16531;SDS011;66872;63.142;14.482;2023-04-24T12:40:40;1.43;;;1.33;;
16531;SDS011;66872;63.142;14.482;2023-04-24T12:43:40;1.17;;;1.00;;
16531;SDS011;66872;63.142;14.482;2023-04-24T12:46:01;1.40;;;1.30;;
16531;SDS011;66872;63.142;14.482;2023-04-24T12:48:28;1.30;;;1.20;;
16531;SDS011;66872;63.142;14.482;2023-04-24T12:50:54;1.30;;;1.20;;
16531;SDS011;66872;63.142;14.482;2023-04-24T12:53:21;1.33;;;1.10;;
16531;SDS011;66872;63.142;14.482;2023-04-24T12:55:47;1.20;;;1.10;;
16531;SDS011;66872;63.142;14.482;2023-04-24T12:58:18;1.30;;;1.20;;
16531;SDS011;66872;63.142;14.482;2023-04-24T13:00:47;1.30;;;1.20;;
16531;SDS011;66872;63.142;14.482;2023-04-24T13:03:13;1.50;;;1.40;;
16531;SDS011;66872;63.142;14.482;2023-04-24T13:05:39;1.33;;;1.23;;
16531;SDS011;66872;63.142;14.482;2023-04-24T13:08:05;1.80;;;1.50;;
16531;SDS011;66872;63.142;14.482;2023-04-24T13:10:31;1.43;;;1.20;;
16531;SDS011;66872;63.142;14.482;2023-04-24T13:12:57;1.43;;;1.30;;
16531;SDS011;66872;63.142;14.482;2023-04-24T13:15:22;1.50;;;1.17;;
16531;SDS011;66872;63.142;14.482;2023-04-24T13:17:51;1.23;;;1.00;;
16531;SDS011;66872;63.142;14.482;2023-04-24T13:20:17;1.20;;;1.10;;
16531;SDS011;66872;63.142;14.482;2023-04-24T13:22:43;1.33;;;1.23;;
16531;SDS011;66872;63.142;14.482;2023-04-24T13:25:08;1.40;;;1.30;;
16531;SDS011;66872;63.142;14.482;2023-04-24T13:27:35;1.30;;;1.20;;
16531;SDS011;66872;63.142;14.482;2023-04-24T13:30:01;1.27;;;1.17;;
16531;SDS011;66872;63.142;14.482;2023-04-24T13:32:26;1.40;;;1.30;;
16531;SDS011;66872;63.142;14.482;2023-04-24T13:34:53;2.33;;;1.40;;
16531;SDS011;66872;63.142;14.482;2023-04-24T13:37:19;1.20;;;1.10;;
16531;SDS011;66872;63.142;14.482;2023-04-24T13:39:45;1.40;;;1.30;;
16531;SDS011;66872;63.142;14.482;2023-04-24T13:42:10;1.30;;;1.20;;
16531;SDS011;66872;63.142;14.482;2023-04-24T13:44:37;1.20;;;1.10;;
16531;SDS011;66872;63.142;14.482;2023-04-24T13:47:03;1.10;;;1.10;;
16531;SDS011;66872;63.142;14.482;2023-04-24T13:49:28;2.20;;;1.20;;
16531;SDS011;66872;63.142;14.482;2023-04-24T13:51:55;1.20;;;1.10;;
16531;SDS011;66872;63.142;14.482;2023-04-24T13:54:21;1.17;;;1.07;;
16531;SDS011;66872;63.142;14.482;2023-04-24T13:56:48;4.97;;;1.40;;
16531;SDS011;66872;63.142;14.482;2023-04-24T13:59:14;3.67;;;1.37;;
16531;SDS011;66872;63.142;14.482;2023-04-24T14:01:40;7.43;;;1.27;;
16531;SDS011;66872;63.142;14.482;2023-04-24T14:04:06;2.90;;;1.33;;
16531;SDS011;66872;63.142;14.482;2023-04-24T14:06:31;3.83;;;1.20;;
16531;SDS011;66872;63.142;14.482;2023-04-24T14:08:57;3.53;;;1.37;;
16531;SDS011;66872;63.142;14.482;2023-04-24T14:11:22;3.40;;;1.43;;
16531;SDS011;66872;63.142;14.482;2023-04-24T14:13:48;2.13;;;1.30;;
16531;SDS011;66872;63.142;14.482;2023-04-24T14:16:14;3.63;;;1.40;;
16531;SDS011;66872;63.142;14.482;2023-04-24T14:18:40;1.30;;;1.20;;
16531;SDS011;66872;63.142;14.482;2023-04-24T14:21:06;3.77;;;1.40;;
16531;SDS011;66872;63.142;14.482;2023-04-24T14:23:32;2.97;;;1.33;;
16531;SDS011;66872;63.142;14.482;2023-04-24T14:25:58;4.63;;;1.40;;
16531;SDS011;66872;63.142;14.482;2023-04-24T14:28:24;5.30;;;1.40;;
16531;SDS011;66872;63.142;14.482;2023-04-24T14:30:51;4.20;;;1.40;;
16531;SDS011;66872;63.142;14.482;2023-04-24T14:33:17;1.30;;;1.20;;
16531;SDS011;66872;63.142;14.482;2023-04-24T14:35:43;1.53;;;1.37;;
16531;SDS011;66872;63.142;14.482;2023-04-24T14:38:09;2.47;;;1.40;;
16531;SDS011;66872;63.142;14.482;2023-04-24T14:40:35;3.10;;;1.73;;
16531;SDS011;66872;63.142;14.482;2023-04-24T14:43:02;2.20;;;1.40;;
16531;SDS011;66872;63.142;14.482;2023-04-24T14:45:28;1.83;;;1.30;;
16531;SDS011;66872;63.142;14.482;2023-04-24T14:47:54;2.00;;;1.43;;
16531;SDS011;66872;63.142;14.482;2023-04-24T14:50:20;3.00;;;1.50;;
16531;SDS011;66872;63.142;14.482;2023-04-24T14:52:46;4.10;;;1.33;;
16531;SDS011;66872;63.142;14.482;2023-04-24T14:55:12;2.27;;;1.10;;
16531;SDS011;66872;63.142;14.482;2023-04-24T14:57:38;1.67;;;1.20;;
16531;SDS011;66872;63.142;14.482;2023-04-24T15:00:07;2.27;;;1.20;;
16531;SDS011;66872;63.142;14.482;2023-04-24T15:02:35;2.27;;;1.40;;